createdAt,value
2023-05-19T00:00:35.091Z,0.0000
2023-05-19T00:01:35.171Z,0.0000
2023-05-19T00:02:36.423Z,0.0000
2023-05-19T00:03:37.877Z,0.0000
2023-05-19T00:04:39.954Z,0.0000
2023-05-19T00:05:41.831Z,0.0000
2023-05-19T00:06:43.072Z,0.0000
2023-05-19T00:07:44.575Z,0.0000
2023-05-19T00:08:45.840Z,0.0000
2023-05-19T00:09:47.632Z,0.0000
2023-05-19T00:10:49.751Z,0.0000
2023-05-19T00:11:51.456Z,0.0000
2023-05-19T00:12:53.869Z,0.0000
2023-05-19T00:13:53.142Z,0.0000
2023-05-19T00:14:53.672Z,0.0000
2023-05-19T00:15:55.637Z,0.0000
2023-05-19T00:16:57.303Z,0.0000
2023-05-19T00:17:58.310Z,0.0000
2023-05-19T00:18:59.318Z,0.0000
2023-05-19T00:22:02.910Z,0.0000
2023-05-19T00:23:03.955Z,0.0000
2023-05-19T00:24:06.690Z,0.0000
2023-05-19T00:25:08.371Z,0.0000
2023-05-19T00:26:09.995Z,0.0000
2023-05-19T00:27:10.861Z,0.0000
2023-05-19T00:28:12.647Z,0.0000
2023-05-19T00:29:14.263Z,0.0000
2023-05-19T00:30:16.181Z,0.0000
2023-05-19T00:31:16.431Z,0.0000
2023-05-19T00:32:18.382Z,0.0000
2023-05-19T00:35:21.785Z,0.0000
2023-05-19T00:36:22.808Z,0.0000
2023-05-19T00:37:23.870Z,0.0000
2023-05-19T00:38:25.762Z,0.0000
2023-05-19T00:39:27.444Z,0.0000
2023-05-19T00:40:28.560Z,0.0000
2023-05-19T00:41:30.535Z,0.0000
2023-05-19T00:42:30.814Z,0.0000
2023-05-19T00:43:31.697Z,0.0000
2023-05-19T00:44:32.412Z,0.0000
2023-05-19T00:45:34.263Z,0.0000
2023-05-19T00:47:42.680Z,0.0000
2023-05-19T00:49:05.549Z,0.0000
2023-05-19T00:50:06.970Z,0.0000
2023-05-19T00:51:08.887Z,0.0000
2023-05-19T00:52:09.924Z,0.0000
2023-05-19T00:54:12.461Z,0.0000
2023-05-19T00:55:13.397Z,0.0000
2023-05-19T00:56:15.184Z,0.0000
2023-05-19T00:57:16.527Z,0.0000
2023-05-19T00:58:17.850Z,0.0000
2023-05-19T00:59:19.209Z,0.0000
2023-05-19T01:00:21.465Z,0.0000
2023-05-19T01:06:27.875Z,0.0000
2023-05-19T01:07:28.094Z,0.0000
2023-05-19T01:08:29.212Z,0.0000
2023-05-19T01:09:31.721Z,0.0000
2023-05-19T01:10:34.203Z,0.0000
2023-05-19T01:12:35.853Z,0.0000
2023-05-19T01:13:38.651Z,0.0000
2023-05-19T01:14:38.562Z,0.0000
2023-05-19T01:15:39.377Z,0.0000
2023-05-19T01:16:40.211Z,0.0000
2023-05-19T01:17:41.382Z,0.0000
2023-05-19T01:18:42.525Z,0.0000
2023-05-19T01:19:44.183Z,0.0000
2023-05-19T01:20:45.770Z,0.0000
2023-05-19T01:21:46.733Z,0.0000
2023-05-19T01:22:47.509Z,0.0000
2023-05-19T01:23:48.675Z,0.0000
2023-05-19T01:25:50.895Z,0.0000
2023-05-19T01:26:52.477Z,0.0000
2023-05-19T01:27:53.661Z,0.0000
2023-05-19T01:28:55.883Z,0.0000
2023-05-19T01:29:57.876Z,0.0000
2023-05-19T01:30:59.793Z,0.0000
2023-05-19T01:31:59.849Z,0.0000
2023-05-19T01:33:01.625Z,0.0000
2023-05-19T01:35:01.220Z,0.0000
2023-05-19T01:36:02.256Z,0.0000
2023-05-19T01:37:03.386Z,0.0000
2023-05-19T01:38:05.549Z,0.0000
2023-05-19T01:39:06.231Z,0.0000
2023-05-19T01:41:07.313Z,0.0000
2023-05-19T01:42:08.127Z,0.0000
2023-05-19T01:44:10.769Z,0.0000
2023-05-19T01:45:12.581Z,0.0000
2023-05-19T01:49:15.993Z,0.0000
2023-05-19T01:50:16.717Z,0.0000
2023-05-19T01:51:17.193Z,0.0000
2023-05-19T01:52:19.097Z,0.0000
2023-05-19T01:53:20.990Z,0.0000
2023-05-19T01:54:22.290Z,0.0000
2023-05-19T01:55:24.317Z,0.0000
2023-05-19T01:56:26.600Z,0.0000
2023-05-19T01:57:27.569Z,0.0000
2023-05-19T01:58:28.863Z,0.0000
2023-05-19T01:59:31.727Z,0.0000
2023-05-19T02:01:32.386Z,0.0000
2023-05-19T02:02:32.576Z,0.0000
2023-05-19T02:03:33.204Z,0.0000
2023-05-19T02:04:35.766Z,0.0000
2023-05-19T02:05:36.872Z,0.0000
2023-05-19T02:06:37.694Z,0.0000
2023-05-19T02:09:42.783Z,0.0000
2023-05-19T02:10:43.354Z,0.0000
2023-05-19T02:11:44.542Z,0.0000
2023-05-19T02:12:44.658Z,0.0000
2023-05-19T02:13:45.626Z,0.0000
2023-05-19T02:14:46.654Z,0.0000
2023-05-19T02:15:47.727Z,0.0000
2023-05-19T02:16:48.925Z,0.0000
2023-05-19T02:17:51.008Z,0.0000
2023-05-19T02:23:55.271Z,0.0000
2023-05-19T02:24:56.437Z,0.0000
2023-05-19T02:26:59.912Z,0.0000
2023-05-19T02:28:01.674Z,0.0000
2023-05-19T02:29:03.281Z,0.0000
2023-05-19T02:30:04.518Z,0.0000
2023-05-19T02:31:07.173Z,0.0000
2023-05-19T02:33:07.684Z,0.0000
2023-05-19T02:34:08.445Z,0.0000
2023-05-19T02:35:09.742Z,0.0000
2023-05-19T02:36:11.296Z,0.0000
2023-05-19T02:37:13.191Z,0.0000
2023-05-19T02:38:14.837Z,0.0000
2023-05-19T02:39:16.690Z,0.0000
2023-05-19T02:40:18.137Z,0.0000
2023-05-19T02:41:20.270Z,0.0000
2023-05-19T02:43:21.657Z,0.0000
2023-05-19T02:44:22.445Z,0.0000
2023-05-19T02:45:24.037Z,0.0000
2023-05-19T02:46:25.817Z,0.0000
2023-05-19T02:47:27.615Z,0.0000
2023-05-19T02:48:29.284Z,0.0000
2023-05-19T02:49:30.598Z,0.0000
2023-05-19T03:02:34.978Z,0.0000
2023-05-19T03:05:38.129Z,0.0000
2023-05-19T03:07:39.296Z,0.0000
2023-05-19T03:08:42.335Z,0.0000
2023-05-19T03:09:41.536Z,0.0000
2023-05-19T03:10:42.315Z,0.0000
2023-05-19T03:11:44.855Z,0.0000
2023-05-19T03:12:46.002Z,0.0000
2023-05-19T03:13:46.504Z,0.0000
2023-05-19T03:14:46.772Z,0.0000
2023-05-19T03:15:48.899Z,0.0000
2023-05-19T03:16:50.399Z,0.0000
2023-05-19T03:17:51.448Z,0.0000
2023-05-19T03:19:52.826Z,0.0000
2023-05-19T03:20:53.862Z,0.0000
2023-05-19T03:22:57.098Z,0.0000
2023-05-19T03:23:57.908Z,0.0000
2023-05-19T03:24:59.343Z,0.0000
2023-05-19T03:26:02.232Z,0.0000
2023-05-19T03:33:06.938Z,0.0000
2023-05-19T03:34:08.348Z,0.0000
2023-05-19T03:35:09.149Z,1.8750
2023-05-19T03:36:10.110Z,5.6250
2023-05-19T03:37:12.276Z,5.6250
2023-05-19T03:38:14.146Z,5.6250
2023-05-19T03:42:47.299Z,10.7812
2023-05-19T03:43:48.368Z,11.2500
2023-05-19T03:46:52.708Z,16.4062
2023-05-19T03:47:54.517Z,16.8750
2023-05-19T03:48:54.962Z,16.8750
2023-05-19T03:49:56.172Z,22.5000
2023-05-19T03:50:57.394Z,22.5000
2023-05-19T03:51:59.433Z,24.7917
2023-05-19T03:53:00.289Z,28.1250
2023-05-19T03:54:01.343Z,28.8281
2023-05-19T03:55:02.594Z,33.7500
2023-05-19T03:56:04.279Z,34.5833
2023-05-19T03:57:06.115Z,39.3750
2023-05-19T03:58:07.315Z,41.4844
2023-05-19T03:59:08.395Z,45.0000
2023-05-19T04:00:09.703Z,48.0469
2023-05-19T04:01:10.849Z,50.6250
2023-05-19T04:02:12.832Z,55.8000
2023-05-19T04:03:14.338Z,58.3594
2023-05-19T04:04:15.833Z,61.8750
2023-05-19T04:05:17.260Z,67.0312
2023-05-19T04:06:19.008Z,70.0781
2023-05-19T04:07:20.467Z,73.1250
2023-05-19T04:08:23.506Z,78.7500
2023-05-19T04:11:25.471Z,84.3750
2023-05-19T04:12:27.001Z,89.5312
2023-05-19T04:13:28.039Z,94.4531
2023-05-19T04:15:31.341Z,106.1719
2023-05-19T04:16:32.295Z,112.0500
2023-05-19T04:18:32.839Z,123.0469
2023-05-19T04:19:34.619Z,127.2656
2023-05-19T04:21:34.972Z,138.7500
2023-05-19T04:22:36.115Z,143.4375
2023-05-19T04:24:37.959Z,152.8125
2023-05-19T04:25:38.497Z,159.3750
2023-05-19T04:26:39.668Z,163.3594
2023-05-19T04:27:41.195Z,167.5781
2023-05-19T04:28:43.528Z,168.7500
2023-05-19T04:30:44.288Z,174.3750
2023-05-19T04:31:44.639Z,175.1087
2023-05-19T04:33:45.536Z,187.2000
2023-05-19T04:34:47.321Z,192.6562
2023-05-19T04:39:53.649Z,218.7500
2023-05-19T04:40:55.523Z,219.3750
2023-05-19T04:41:58.030Z,218.4375
2023-05-19T04:42:58.672Z,213.7500
2023-05-19T04:44:00.925Z,223.5938
2023-05-19T04:45:01.727Z,225.0000
2023-05-19T04:46:02.754Z,226.4062
2023-05-19T04:48:05.513Z,235.0781
2023-05-19T04:49:07.817Z,242.1094
2023-05-19T04:51:07.668Z,251.4844
2023-05-19T04:52:08.891Z,263.2031
2023-05-19T04:53:10.475Z,270.0000
2023-05-19T04:54:11.835Z,270.0000
2023-05-19T04:55:12.974Z,267.8906
2023-05-19T04:56:15.038Z,263.1250
2023-05-19T04:57:17.221Z,258.7500
2023-05-19T04:58:19.104Z,258.7500
2023-05-19T04:59:20.205Z,258.7500
2023-05-19T05:00:23.237Z,251.8750
2023-05-19T05:02:23.980Z,269.5109
2023-05-19T05:03:25.597Z,273.0469
2023-05-19T05:04:26.608Z,284.5312
2023-05-19T05:05:28.208Z,312.1875
2023-05-19T05:06:29.763Z,326.4844
2023-05-19T05:08:31.015Z,352.5000
2023-05-19T05:09:33.531Z,358.1250
2023-05-19T05:10:35.705Z,361.1719
2023-05-19T05:11:35.804Z,368.8044
2023-05-19T05:12:37.412Z,393.9844
2023-05-19T05:13:39.098Z,409.9219
2023-05-19T05:15:41.823Z,423.0000
2023-05-19T05:16:43.625Z,429.3750
2023-05-19T05:17:45.492Z,442.4279
2023-05-19T05:18:47.279Z,441.5625
2023-05-19T05:19:48.618Z,438.7500
2023-05-19T05:20:49.718Z,437.8500
2023-05-19T05:21:52.341Z,444.1406
2023-05-19T05:26:57.352Z,386.9531
2023-05-19T05:27:58.996Z,401.7188
2023-05-19T05:28:59.912Z,391.6406
2023-05-19T05:32:03.529Z,345.2344
2023-05-19T05:33:04.576Z,331.6406
2023-05-19T05:34:05.392Z,312.8906
2023-05-19T05:35:06.614Z,299.5312
2023-05-19T05:36:08.393Z,289.6875
2023-05-19T05:37:08.891Z,282.1875
2023-05-19T05:38:11.336Z,280.2083
2023-05-19T05:39:12.827Z,259.9219
2023-05-19T05:40:14.754Z,243.2250
2023-05-19T05:41:14.875Z,242.1000
2023-05-19T05:42:17.237Z,234.8438
2023-05-19T05:43:16.935Z,225.7337
2023-05-19T05:44:17.706Z,228.9844
2023-05-19T05:46:20.321Z,235.7812
2023-05-19T05:48:21.814Z,230.6250
2023-05-19T05:49:24.333Z,225.9000
2023-05-19T05:50:24.543Z,225.0000
2023-05-19T05:53:26.442Z,208.6141
2023-05-19T05:55:28.152Z,213.5156
2023-05-19T05:56:29.569Z,210.4688
2023-05-19T05:57:29.716Z,218.9062
2023-05-19T05:58:31.460Z,218.6719
2023-05-19T05:59:33.076Z,209.0625
2023-05-19T06:00:34.846Z,202.9688
2023-05-19T06:01:35.702Z,198.3424
2023-05-19T06:02:37.523Z,191.2500
2023-05-19T06:03:37.576Z,186.0577
2023-05-19T06:04:39.677Z,188.6719
2023-05-19T06:05:42.075Z,195.7031
2023-05-19T06:09:59.969Z,197.3438
2023-05-19T06:11:16.974Z,0.0000
2023-05-19T06:12:18.033Z,0.0000
2023-05-19T06:13:18.240Z,0.0000
2023-05-19T06:14:20.725Z,0.0000
2023-05-19T06:15:22.112Z,0.0000
2023-05-19T06:16:23.471Z,0.0000
2023-05-19T06:17:25.228Z,0.0000
2023-05-19T06:18:26.949Z,0.0000
2023-05-19T06:19:28.844Z,0.0000
2023-05-19T06:20:29.726Z,0.0000
2023-05-19T06:21:31.420Z,0.0000
2023-05-19T06:23:32.201Z,0.0000
2023-05-19T06:24:34.373Z,0.0000
2023-05-19T06:25:34.850Z,0.0000
2023-05-19T06:26:35.222Z,0.0000
2023-05-19T06:27:37.848Z,0.0000
2023-05-19T06:28:38.488Z,0.0000
2023-05-19T06:29:39.934Z,0.0000
2023-05-19T06:30:42.858Z,0.0000
2023-05-19T06:31:44.803Z,0.0000
2023-05-19T06:37:51.846Z,0.0000
2023-05-19T06:38:53.473Z,0.0000
2023-05-19T06:39:54.403Z,0.0000
2023-05-19T06:40:56.175Z,0.0000
2023-05-19T06:41:58.494Z,0.0000
2023-05-19T06:43:00.534Z,0.0000
2023-05-19T06:44:02.708Z,0.0000
2023-05-19T06:45:03.777Z,0.0000
2023-05-19T06:46:05.766Z,0.0000
2023-05-19T06:47:07.652Z,0.0000
2023-05-19T06:48:07.606Z,0.0000
2023-05-19T06:49:09.069Z,0.0000
2023-05-19T06:50:10.680Z,0.0000
2023-05-19T06:51:12.816Z,0.0000
2023-05-19T06:52:14.262Z,0.0000
2023-05-19T06:53:15.245Z,0.0000
2023-05-19T06:54:16.511Z,0.0000
2023-05-19T06:55:17.634Z,0.0000
2023-05-19T06:56:18.659Z,0.0000
2023-05-19T06:57:32.869Z,0.0000
2023-05-19T06:58:50.657Z,0.0000
2023-05-19T06:59:51.327Z,0.0000
2023-05-19T07:00:52.117Z,0.0000
2023-05-19T07:01:52.487Z,0.0000
2023-05-19T07:02:53.239Z,0.0000
2023-05-19T07:12:57.818Z,0.0000
2023-05-19T07:15:59.369Z,0.0000
2023-05-19T07:21:02.352Z,0.0000
2023-05-19T07:23:02.617Z,0.0000
2023-05-19T07:24:04.031Z,0.0000
2023-05-19T07:25:04.752Z,0.0000
2023-05-19T07:26:05.261Z,0.0000
2023-05-19T07:29:12.357Z,0.0000
2023-05-19T07:31:06.680Z,0.0000
2023-05-19T07:32:07.579Z,0.0000
2023-05-19T07:33:08.429Z,0.0000
2023-05-19T07:34:08.814Z,0.0000
2023-05-19T07:35:09.554Z,0.0000
2023-05-19T07:36:09.622Z,0.0000
2023-05-19T07:37:10.065Z,0.0000
2023-05-19T07:38:10.924Z,0.0000
2023-05-19T07:39:11.820Z,0.0000
2023-05-19T07:40:12.789Z,0.0000
2023-05-19T07:41:13.680Z,0.0000
2023-05-19T07:42:14.391Z,0.0000
2023-05-19T07:43:15.328Z,0.0000
2023-05-19T07:44:16.203Z,0.0000
2023-05-19T07:45:16.630Z,0.0000
2023-05-19T07:52:20.055Z,0.0000
2023-05-19T07:53:20.853Z,0.0000
2023-05-19T07:55:21.905Z,0.0000
2023-05-19T08:00:23.037Z,0.0000
2023-05-19T08:01:24.019Z,0.0000
2023-05-19T08:02:24.878Z,0.0000
2023-05-19T08:03:25.661Z,0.0000
2023-05-19T08:04:25.750Z,0.0000
2023-05-19T08:05:27.329Z,0.0000
2023-05-19T08:09:29.206Z,0.0000
2023-05-19T08:10:29.561Z,0.0000
2023-05-19T08:11:30.457Z,0.0000
2023-05-19T08:16:31.794Z,0.0000
2023-05-19T08:17:32.457Z,0.0000
2023-05-19T08:18:33.081Z,0.0000
2023-05-19T08:19:33.598Z,0.0000
2023-05-19T08:20:34.305Z,0.0000
2023-05-19T08:26:37.763Z,0.0000
2023-05-19T08:27:36.536Z,0.0000
2023-05-19T08:28:37.372Z,0.0000
2023-05-19T08:29:38.283Z,0.0000
2023-05-19T08:30:38.842Z,0.0000
2023-05-19T08:31:39.830Z,0.0000
2023-05-19T08:32:40.765Z,0.0000
2023-05-19T08:33:41.033Z,0.0000
2023-05-19T08:34:42.038Z,0.0000
2023-05-19T08:36:42.945Z,0.0000
2023-05-19T08:37:44.507Z,0.0000
2023-05-19T08:42:45.537Z,0.0000
2023-05-19T08:43:45.611Z,0.0000
2023-05-19T08:45:01.185Z,0.0000
2023-05-19T08:56:28.579Z,1252.4185
2023-05-19T08:57:30.019Z,1336.8029
2023-05-19T08:58:30.557Z,1388.1522
2023-05-19T09:01:33.183Z,1410.3606
2023-05-19T09:03:34.276Z,1337.2356
2023-05-19T09:04:34.890Z,1293.0469
2023-05-19T09:05:36.693Z,1231.6587
2023-05-19T09:06:38.065Z,1227.2283
2023-05-19T09:07:40.111Z,1213.3594
2023-05-19T09:08:40.828Z,1135.7609
2023-05-19T09:09:41.575Z,1015.4348
2023-05-19T09:10:42.551Z,975.3261
2023-05-19T09:11:42.991Z,1026.5625
2023-05-19T09:12:45.049Z,1162.5750
2023-05-19T09:13:46.193Z,1182.7644
2023-05-19T09:14:48.029Z,1055.9856
2023-05-19T09:15:48.389Z,991.9471
2023-05-19T09:16:49.519Z,1086.6033
2023-05-19T09:17:50.576Z,1141.6406
2023-05-19T09:18:50.987Z,1112.4519
2023-05-19T09:19:52.949Z,1091.2500
2023-05-19T09:20:53.200Z,1077.0750
2023-05-19T09:21:55.246Z,1051.0416
2023-05-19T09:22:55.245Z,1056.5625
2023-05-19T09:23:56.616Z,1039.8914
2023-05-19T09:24:56.597Z,986.9711
2023-05-19T09:25:58.162Z,952.5815
2023-05-19T09:27:00.031Z,897.5250
2023-05-19T09:28:00.335Z,858.6779
2023-05-19T09:30:01.038Z,832.9891
2023-05-19T09:31:03.307Z,845.8333
2023-05-19T09:32:03.424Z,866.2500
2023-05-19T09:33:05.762Z,865.0781
2023-05-19T09:34:05.654Z,863.9062
2023-05-19T09:35:06.075Z,882.1467
2023-05-19T09:36:06.791Z,912.4728
2023-05-19T09:37:08.483Z,964.6875
2023-05-19T09:38:09.947Z,1068.2609
2023-05-19T09:39:10.518Z,1205.7065
2023-05-19T09:40:13.031Z,1258.7772
2023-05-19T09:41:11.775Z,1263.9844
2023-05-19T09:42:13.988Z,1312.5000
2023-05-19T09:43:15.971Z,1376.1779
2023-05-19T09:44:17.480Z,1469.7000
2023-05-19T09:45:18.194Z,1394.2969
2023-05-19T09:46:20.002Z,1251.3462
2023-05-19T09:47:22.099Z,1225.3500
2023-05-19T09:48:22.820Z,1320.1443
2023-05-19T09:49:24.293Z,1325.7000
2023-05-19T09:50:25.329Z,1265.6250
2023-05-19T09:51:26.202Z,1298.8859
2023-05-19T09:52:27.503Z,1287.3914
2023-05-19T09:53:29.607Z,1293.7500
2023-05-19T09:54:31.330Z,1348.2693
2023-05-19T09:56:32.640Z,1209.1305
2023-05-19T09:57:34.502Z,1083.0469
2023-05-19T09:58:36.715Z,1024.5834
2023-05-19T09:59:37.689Z,1005.8967
2023-05-19T10:00:38.560Z,1052.8533
2023-05-19T10:01:40.832Z,1064.6394
2023-05-19T10:02:41.296Z,1201.9500
2023-05-19T10:03:41.728Z,1435.0240
2023-05-19T10:04:42.472Z,1527.7990
2023-05-19T10:05:42.762Z,1496.7391
2023-05-19T10:06:43.597Z,1483.0435
2023-05-19T10:07:45.232Z,1478.6414
2023-05-19T10:08:47.357Z,1434.5834
2023-05-19T10:09:48.043Z,1431.4402
2023-05-19T10:10:48.655Z,1506.0326
2023-05-19T10:11:49.219Z,1607.7717
2023-05-19T10:12:50.188Z,1672.5721
2023-05-19T10:13:51.010Z,1719.0490
2023-05-19T10:15:58.229Z,1565.7065
2023-05-19T10:16:53.029Z,1414.3207
2023-05-19T10:17:54.022Z,1288.5938
2023-05-19T10:18:54.540Z,1272.7174
2023-05-19T10:19:54.765Z,1282.2837
2023-05-19T10:20:55.470Z,1186.2000
2023-05-19T10:21:55.680Z,1162.4185
2023-05-19T10:22:56.252Z,1326.6346
2023-05-19T10:24:58.165Z,1617.5543
2023-05-19T10:25:59.275Z,1572.4219
2023-05-19T10:27:00.465Z,1513.8586
2023-05-19T10:28:02.467Z,1510.2000
2023-05-19T10:29:02.722Z,1456.4423
2023-05-19T10:30:03.838Z,1418.2336
2023-05-19T10:31:05.406Z,1404.0490
2023-05-19T10:32:06.192Z,1377.8805
2023-05-19T10:33:07.606Z,1345.1086
2023-05-19T10:34:08.550Z,1305.9783
2023-05-19T10:35:09.791Z,1295.9510
2023-05-19T10:36:10.757Z,1283.9674
2023-05-19T10:37:10.962Z,1260.0000
2023-05-19T10:38:11.543Z,1231.2260
2023-05-19T10:39:13.462Z,1136.9250
2023-05-19T10:40:13.703Z,1100.5435
2023-05-19T10:41:14.820Z,1122.3098
2023-05-19T10:42:15.650Z,1087.2000
2023-05-19T10:43:17.094Z,1054.1250
2023-05-19T10:44:17.329Z,1077.5250
2023-05-19T10:45:19.127Z,1180.0000
2023-05-19T10:46:20.591Z,1265.4000
2023-05-19T10:47:21.227Z,1342.1740
2023-05-19T10:48:21.571Z,1379.8369
2023-05-19T10:49:22.294Z,1515.3260
2023-05-19T10:50:22.607Z,1535.1359
2023-05-19T10:51:23.467Z,1497.9807
2023-05-19T10:52:23.857Z,1489.1576
2023-05-19T10:53:24.745Z,1483.7772
2023-05-19T10:54:25.444Z,1456.1414
2023-05-19T10:55:26.044Z,1481.5760
2023-05-19T10:56:28.333Z,1470.8250
2023-05-19T10:57:28.879Z,1516.6406
2023-05-19T10:58:31.061Z,1637.3438
2023-05-19T10:59:32.151Z,1700.7065
2023-05-19T11:00:34.328Z,1642.2750
2023-05-19T11:01:34.966Z,1742.0193
2023-05-19T11:02:35.370Z,1709.5673
2023-05-19T11:03:36.961Z,1668.1500
2023-05-19T11:04:37.275Z,1479.5913
2023-05-19T11:05:37.920Z,1402.6500
2023-05-19T11:06:37.978Z,1124.2664
2023-05-19T11:07:38.404Z,1009.1250
2023-05-19T11:08:39.109Z,985.5000
2023-05-19T11:09:40.686Z,993.9130
2023-05-19T11:10:42.323Z,1036.4062
2023-05-19T11:11:44.408Z,1114.6500
2023-05-19T11:12:45.548Z,1258.0435
2023-05-19T11:13:46.310Z,1374.5250
2023-05-19T11:14:46.344Z,1518.2609
2023-05-19T11:15:47.241Z,1610.2174
2023-05-19T11:17:47.614Z,1516.3043
2023-05-19T11:18:47.737Z,1630.7609
2023-05-19T11:19:48.256Z,1767.9619
2023-05-19T11:20:49.049Z,1796.5760
2023-05-19T11:21:49.567Z,1768.1250
2023-05-19T11:22:49.854Z,1590.8967
2023-05-19T11:23:50.182Z,1446.0577
2023-05-19T11:24:50.909Z,1257.5543
2023-05-19T11:25:52.645Z,1125.4327
2023-05-19T11:26:53.270Z,1057.5000
2023-05-19T11:27:55.216Z,1004.1750
2023-05-19T11:28:55.600Z,960.3000
2023-05-19T11:29:55.914Z,981.0000
2023-05-19T11:30:56.548Z,1055.5435
2023-05-19T11:31:57.000Z,1120.2404
2023-05-19T11:32:57.701Z,1182.8906
2023-05-19T11:33:59.208Z,1254.6000
2023-05-19T11:34:59.223Z,1316.4663
2023-05-19T11:36:01.310Z,1386.4500
2023-05-19T11:37:02.882Z,1551.0938
2023-05-19T11:38:03.657Z,1498.5000
2023-05-19T11:39:05.102Z,1574.5500
2023-05-19T11:40:06.797Z,1697.6682
2023-05-19T11:41:08.034Z,2122.3369
2023-05-19T11:42:09.419Z,2588.6719
2023-05-19T11:43:10.050Z,2734.1826
2023-05-19T11:44:11.021Z,2813.8501
2023-05-19T11:45:11.766Z,2743.0435
2023-05-19T11:46:13.293Z,2638.5750
2023-05-19T11:47:14.613Z,2500.8750
2023-05-19T11:48:16.540Z,2540.6250
2023-05-19T11:49:17.813Z,2517.1875
2023-05-19T11:50:19.013Z,2548.3696
2023-05-19T11:51:19.180Z,2731.0500
2023-05-19T11:52:19.571Z,2650.8423
2023-05-19T11:53:20.770Z,2433.6685
2023-05-19T11:54:22.759Z,2419.9219
2023-05-19T11:55:23.648Z,2450.2988
2023-05-19T11:56:24.083Z,2497.0674
2023-05-19T11:57:26.094Z,2570.3999
2023-05-19T11:58:26.883Z,2602.6631
2023-05-19T11:59:27.540Z,2715.6521
2023-05-19T12:00:28.852Z,2719.3206
2023-05-19T12:01:29.584Z,2703.6685
2023-05-19T12:02:30.019Z,2720.5435
2023-05-19T12:03:30.740Z,2733.7500
2023-05-19T12:04:31.325Z,2691.9294
2023-05-19T12:05:36.654Z,2628.7500
2023-05-19T12:09:05.147Z,2326.5488
2023-05-19T12:10:05.997Z,2252.9250
2023-05-19T12:11:07.533Z,2206.2981
2023-05-19T12:12:07.798Z,2165.8594
2023-05-19T12:13:09.405Z,2070.6750
2023-05-19T12:14:11.098Z,2007.1875
2023-05-19T12:15:13.177Z,1966.6406
2023-05-19T12:16:14.738Z,1902.1154
2023-05-19T12:17:14.930Z,1885.3533
2023-05-19T12:18:14.936Z,1897.0924
2023-05-19T12:19:15.652Z,1897.1394
2023-05-19T12:20:16.491Z,2037.2283
2023-05-19T12:21:17.135Z,2227.7446
2023-05-19T12:22:17.816Z,2395.7610
2023-05-19T12:23:18.223Z,2233.3413
2023-05-19T12:24:19.169Z,2327.6682
2023-05-19T12:25:20.089Z,2389.8914
2023-05-19T12:26:20.413Z,2425.8423
2023-05-19T12:27:20.754Z,2480.6250
2023-05-19T12:28:20.738Z,2409.8799
2023-05-19T12:29:21.595Z,2383.5327
2023-05-19T12:30:21.978Z,2422.9077
2023-05-19T12:31:23.261Z,2375.1001
2023-05-19T12:32:24.962Z,2510.9136
2023-05-19T12:33:26.444Z,2510.6250
2023-05-19T12:34:27.252Z,2414.2969
2023-05-19T12:35:29.076Z,2178.2251
2023-05-19T12:36:30.574Z,2507.8501
2023-05-19T12:37:31.618Z,2451.2019
2023-05-19T12:38:32.584Z,2463.0750
2023-05-19T12:39:33.562Z,2084.8501
2023-05-19T12:40:35.087Z,1942.6500
2023-05-19T12:41:35.462Z,1503.9844
2023-05-19T12:42:35.633Z,1445.4000
2023-05-19T12:43:36.647Z,1406.8990
2023-05-19T12:45:39.571Z,1553.6719
2023-05-19T12:46:40.224Z,1635.5769
2023-05-19T12:47:41.910Z,1556.1000
2023-05-19T12:48:42.364Z,1379.2500
2023-05-19T12:49:43.779Z,1278.4500
2023-05-19T12:50:44.523Z,1228.5000
2023-05-19T12:51:46.724Z,1143.9844
2023-05-19T12:52:46.921Z,1113.0164
2023-05-19T12:53:48.670Z,1102.9688
2023-05-19T12:54:49.861Z,1085.6250
2023-05-19T12:55:50.840Z,1082.9348
2023-05-19T12:56:51.860Z,1105.4348
2023-05-19T12:57:52.077Z,1156.6406
2023-05-19T12:58:52.113Z,1217.6902
2023-05-19T12:59:54.587Z,1277.0834
2023-05-19T13:01:55.149Z,1491.8478
2023-05-19T13:02:55.492Z,1558.3695
2023-05-19T13:03:56.144Z,1606.0598
2023-05-19T13:04:57.313Z,1709.5109
2023-05-19T13:05:59.112Z,1841.7548
2023-05-19T13:06:59.590Z,2030.8695
2023-05-19T13:08:01.322Z,2019.3750
2023-05-19T13:09:02.838Z,2038.5938
2023-05-19T13:10:04.236Z,1855.2717
2023-05-19T13:11:04.945Z,1542.7174
2023-05-19T13:12:06.273Z,1239.2119
2023-05-19T13:13:06.500Z,1005.8967
2023-05-19T13:16:11.332Z,610.9239
2023-05-19T13:17:11.722Z,563.4783
2023-05-19T13:18:12.350Z,533.1522
2023-05-19T13:19:24.285Z,510.8967
2023-05-19T13:20:43.446Z,514.6875
2023-05-19T13:21:44.537Z,549.0489
2023-05-19T13:22:45.823Z,585.4891
2023-05-19T13:23:47.564Z,638.8702
2023-05-19T13:24:47.878Z,725.3804
2023-05-19T13:25:49.382Z,834.9457
2023-05-19T13:26:50.238Z,907.0924
2023-05-19T13:27:51.754Z,975.0815
2023-05-19T13:28:51.905Z,1042.3369
2023-05-19T13:29:53.184Z,1081.7119
2023-05-19T13:30:54.253Z,1090.0272
2023-05-19T13:31:55.222Z,1065.0815
2023-05-19T13:32:56.815Z,1008.3894
2023-05-19T13:33:57.389Z,940.0240
2023-05-19T13:34:58.174Z,864.0000
2023-05-19T13:35:59.305Z,769.4022
2023-05-19T13:37:00.054Z,688.0398
2023-05-19T13:38:01.300Z,637.5815
2023-05-19T13:39:02.495Z,631.9565
2023-05-19T13:40:02.819Z,644.1848
2023-05-19T13:41:03.060Z,678.6685
2023-05-19T13:42:03.921Z,717.3098
2023-05-19T13:43:05.264Z,761.3221
2023-05-19T13:44:05.537Z,809.7656
2023-05-19T13:45:07.752Z,850.1087
2023-05-19T13:46:08.859Z,872.6087
2023-05-19T13:47:10.434Z,895.8424
2023-05-19T13:48:11.094Z,940.6731
2023-05-19T13:49:12.125Z,1006.3859
2023-05-19T13:50:12.945Z,1072.4185
2023-05-19T13:51:13.483Z,1129.6467
2023-05-19T13:52:14.261Z,1149.9457
2023-05-19T13:54:14.476Z,1076.8207
2023-05-19T13:55:16.129Z,1001.7391
2023-05-19T13:56:17.086Z,903.3750
2023-05-19T13:57:17.618Z,774.7356
2023-05-19T13:58:18.078Z,654.0750
2023-05-19T13:59:18.398Z,618.9946
2023-05-19T14:00:20.138Z,573.7500
2023-05-19T14:01:21.508Z,548.4375
2023-05-19T14:02:22.484Z,544.3269
2023-05-19T14:03:22.798Z,515.7880
2023-05-19T14:04:24.941Z,477.4219
2023-05-19T14:05:25.154Z,443.8859
2023-05-19T14:06:26.950Z,412.9688
2023-05-19T14:07:27.947Z,376.2000
2023-05-19T14:08:28.589Z,343.3696
2023-05-19T14:09:29.954Z,323.5598
2023-05-19T14:10:31.192Z,320.8696
2023-05-19T14:11:32.532Z,331.8750
2023-05-19T14:12:43.674Z,342.3913
2023-05-19T14:14:04.438Z,334.4531
2023-05-19T14:15:05.125Z,329.4294
2023-05-19T14:16:05.611Z,343.8000
2023-05-19T14:17:06.266Z,381.5217
2023-05-19T14:18:07.447Z,418.2750
2023-05-19T14:19:07.407Z,463.6298
2023-05-19T14:20:07.524Z,514.2188
2023-05-19T14:21:07.826Z,534.3750
2023-05-19T14:22:09.725Z,551.8990
2023-05-19T14:23:11.090Z,582.7989
2023-05-19T14:25:12.743Z,629.2663
2023-05-19T14:26:12.914Z,609.9457
2023-05-19T14:27:14.358Z,589.2188
2023-05-19T14:29:14.494Z,524.1033
2023-05-19T14:30:14.909Z,495.2446
2023-05-19T14:31:16.781Z,469.0761
2023-05-19T14:32:17.490Z,461.9531
2023-05-19T14:33:19.040Z,460.7609
2023-05-19T14:34:20.123Z,455.6250
2023-05-19T14:35:20.548Z,460.3500
2023-05-19T14:36:21.140Z,466.0096
2023-05-19T14:37:23.161Z,469.5750
2023-05-19T14:38:26.047Z,479.5312
2023-05-19T14:39:25.561Z,490.3533
2023-05-19T14:40:25.564Z,498.1794
2023-05-19T14:41:25.655Z,503.8044
2023-05-19T14:42:26.699Z,512.6087
2023-05-19T14:43:27.764Z,517.7446
2023-05-19T14:44:29.210Z,527.6250
2023-05-19T14:45:29.381Z,527.0380
2023-05-19T14:46:29.831Z,522.1467
2023-05-19T14:47:31.140Z,545.6250
2023-05-19T14:48:31.763Z,601.8750
2023-05-19T14:49:31.827Z,668.3967
2023-05-19T14:50:32.223Z,717.7989
2023-05-19T14:51:32.690Z,744.2120
2023-05-19T14:52:33.217Z,754.9728
2023-05-19T14:53:34.119Z,737.6087
2023-05-19T14:54:34.789Z,683.8043
2023-05-19T14:55:36.290Z,621.0000
2023-05-19T14:56:36.825Z,575.9511
2023-05-19T14:57:37.670Z,546.3281
2023-05-19T14:58:38.336Z,517.9891
2023-05-19T14:59:39.337Z,498.2452
2023-05-19T15:00:39.426Z,489.8641
2023-05-19T15:01:40.312Z,491.8206